sensor_id;sensor_type;location;lat;lon;timestamp;P1;durP1;ratioP1;P2;durP2;ratioP2
67041;SDS011;53949;47.790;18.750;2022-12-07T00:01:32;13.02;;;7.47;;
67041;SDS011;53949;47.790;18.750;2022-12-07T00:04:38;12.65;;;7.80;;
67041;SDS011;53949;47.790;18.750;2022-12-07T00:07:41;13.73;;;8.52;;
67041;SDS011;53949;47.790;18.750;2022-12-07T00:10:45;16.83;;;10.40;;
67041;SDS011;53949;47.790;18.750;2022-12-07T00:13:58;15.25;;;10.32;;
67041;SDS011;53949;47.790;18.750;2022-12-07T00:17:03;14.25;;;8.95;;
67041;SDS011;53949;47.790;18.750;2022-12-07T00:20:06;10.85;;;7.10;;
67041;SDS011;53949;47.790;18.750;2022-12-07T00:23:10;14.00;;;8.30;;
67041;SDS011;53949;47.790;18.750;2022-12-07T00:26:19;18.95;;;8.98;;
67041;SDS011;53949;47.790;18.750;2022-12-07T00:29:26;18.33;;;9.25;;
67041;SDS011;53949;47.790;18.750;2022-12-07T00:32:29;19.10;;;9.48;;
67041;SDS011;53949;47.790;18.750;2022-12-07T00:35:33;13.75;;;8.20;;
67041;SDS011;53949;47.790;18.750;2022-12-07T00:38:36;19.12;;;10.85;;
67041;SDS011;53949;47.790;18.750;2022-12-07T00:41:40;20.35;;;11.00;;
67041;SDS011;53949;47.790;18.750;2022-12-07T00:44:43;21.23;;;10.05;;
67041;SDS011;53949;47.790;18.750;2022-12-07T00:47:47;17.67;;;9.88;;
67041;SDS011;53949;47.790;18.750;2022-12-07T00:50:50;12.80;;;7.90;;
67041;SDS011;53949;47.790;18.750;2022-12-07T00:53:54;16.50;;;9.57;;
67041;SDS011;53949;47.790;18.750;2022-12-07T00:56:57;14.30;;;10.10;;
67041;SDS011;53949;47.790;18.750;2022-12-07T01:00:01;19.17;;;9.68;;
67041;SDS011;53949;47.790;18.750;2022-12-07T01:03:05;14.02;;;9.35;;
67041;SDS011;53949;47.790;18.750;2022-12-07T01:06:09;13.40;;;7.62;;
67041;SDS011;53949;47.790;18.750;2022-12-07T01:09:18;16.33;;;9.32;;
67041;SDS011;53949;47.790;18.750;2022-12-07T01:12:21;12.98;;;8.13;;
67041;SDS011;53949;47.790;18.750;2022-12-07T01:15:26;14.63;;;8.82;;
67041;SDS011;53949;47.790;18.750;2022-12-07T01:18:31;15.30;;;9.40;;
67041;SDS011;53949;47.790;18.750;2022-12-07T01:21:36;11.27;;;7.15;;
67041;SDS011;53949;47.790;18.750;2022-12-07T01:24:42;10.68;;;6.93;;
67041;SDS011;53949;47.790;18.750;2022-12-07T01:27:45;13.73;;;7.82;;
67041;SDS011;53949;47.790;18.750;2022-12-07T01:30:59;11.80;;;7.78;;
67041;SDS011;53949;47.790;18.750;2022-12-07T01:34:10;11.27;;;7.30;;
67041;SDS011;53949;47.790;18.750;2022-12-07T01:37:13;10.95;;;7.47;;
67041;SDS011;53949;47.790;18.750;2022-12-07T01:40:16;12.43;;;7.60;;
67041;SDS011;53949;47.790;18.750;2022-12-07T01:43:20;12.95;;;7.97;;
67041;SDS011;53949;47.790;18.750;2022-12-07T01:46:23;11.32;;;7.65;;
67041;SDS011;53949;47.790;18.750;2022-12-07T01:49:30;14.57;;;8.25;;
67041;SDS011;53949;47.790;18.750;2022-12-07T01:52:37;14.40;;;8.35;;
67041;SDS011;53949;47.790;18.750;2022-12-07T01:55:43;15.77;;;8.73;;
67041;SDS011;53949;47.790;18.750;2022-12-07T01:58:48;11.85;;;7.90;;
67041;SDS011;53949;47.790;18.750;2022-12-07T02:01:52;11.60;;;7.77;;
67041;SDS011;53949;47.790;18.750;2022-12-07T02:04:57;14.35;;;7.93;;
67041;SDS011;53949;47.790;18.750;2022-12-07T02:08:02;13.68;;;7.53;;
67041;SDS011;53949;47.790;18.750;2022-12-07T02:11:06;12.70;;;7.93;;
67041;SDS011;53949;47.790;18.750;2022-12-07T02:14:11;11.73;;;7.93;;
67041;SDS011;53949;47.790;18.750;2022-12-07T02:17:21;11.60;;;7.55;;
67041;SDS011;53949;47.790;18.750;2022-12-07T02:20:33;12.68;;;6.78;;
67041;SDS011;53949;47.790;18.750;2022-12-07T02:23:40;10.02;;;7.22;;
67041;SDS011;53949;47.790;18.750;2022-12-07T02:30:25;10.10;;;7.20;;
67041;SDS011;53949;47.790;18.750;2022-12-07T02:33:33;11.55;;;7.50;;
67041;SDS011;53949;47.790;18.750;2022-12-07T02:36:39;11.73;;;7.72;;
67041;SDS011;53949;47.790;18.750;2022-12-07T02:39:48;12.98;;;7.53;;
67041;SDS011;53949;47.790;18.750;2022-12-07T02:46:17;8.95;;;6.22;;
67041;SDS011;53949;47.790;18.750;2022-12-07T02:49:32;13.15;;;7.68;;
67041;SDS011;53949;47.790;18.750;2022-12-07T02:52:35;12.02;;;7.60;;
67041;SDS011;53949;47.790;18.750;2022-12-07T02:55:39;11.40;;;7.03;;
67041;SDS011;53949;47.790;18.750;2022-12-07T02:59:09;11.10;;;6.85;;
67041;SDS011;53949;47.790;18.750;2022-12-07T03:05:32;11.75;;;7.60;;
67041;SDS011;53949;47.790;18.750;2022-12-07T03:11:52;12.40;;;7.03;;
67041;SDS011;53949;47.790;18.750;2022-12-07T03:15:07;11.57;;;6.95;;
67041;SDS011;53949;47.790;18.750;2022-12-07T03:18:15;10.15;;;6.70;;
67041;SDS011;53949;47.790;18.750;2022-12-07T03:21:27;12.45;;;6.93;;
67041;SDS011;53949;47.790;18.750;2022-12-07T03:24:38;12.55;;;6.65;;
67041;SDS011;53949;47.790;18.750;2022-12-07T03:27:58;12.93;;;7.25;;
67041;SDS011;53949;47.790;18.750;2022-12-07T03:31:27;11.75;;;7.37;;
67041;SDS011;53949;47.790;18.750;2022-12-07T03:34:38;10.57;;;6.40;;
67041;SDS011;53949;47.790;18.750;2022-12-07T03:37:59;12.40;;;6.55;;
67041;SDS011;53949;47.790;18.750;2022-12-07T03:44:12;9.10;;;5.95;;
67041;SDS011;53949;47.790;18.750;2022-12-07T03:50:31;8.80;;;5.60;;
67041;SDS011;53949;47.790;18.750;2022-12-07T03:53:44;8.70;;;5.68;;
67041;SDS011;53949;47.790;18.750;2022-12-07T03:56:50;9.13;;;5.95;;
67041;SDS011;53949;47.790;18.750;2022-12-07T03:59:56;8.38;;;5.72;;
67041;SDS011;53949;47.790;18.750;2022-12-07T04:03:13;8.48;;;6.05;;
67041;SDS011;53949;47.790;18.750;2022-12-07T04:06:16;11.77;;;5.97;;
67041;SDS011;53949;47.790;18.750;2022-12-07T04:09:20;7.75;;;5.80;;
67041;SDS011;53949;47.790;18.750;2022-12-07T04:12:23;8.27;;;5.72;;
67041;SDS011;53949;47.790;18.750;2022-12-07T04:15:26;9.60;;;6.15;;
67041;SDS011;53949;47.790;18.750;2022-12-07T04:18:30;8.23;;;5.25;;
67041;SDS011;53949;47.790;18.750;2022-12-07T04:21:32;8.63;;;6.47;;
67041;SDS011;53949;47.790;18.750;2022-12-07T04:24:36;8.48;;;5.75;;
67041;SDS011;53949;47.790;18.750;2022-12-07T04:27:38;7.07;;;5.43;;
67041;SDS011;53949;47.790;18.750;2022-12-07T04:30:42;7.78;;;5.60;;
67041;SDS011;53949;47.790;18.750;2022-12-07T04:33:46;8.30;;;5.62;;
67041;SDS011;53949;47.790;18.750;2022-12-07T04:36:50;8.57;;;5.28;;
67041;SDS011;53949;47.790;18.750;2022-12-07T04:39:53;7.62;;;5.60;;
67041;SDS011;53949;47.790;18.750;2022-12-07T04:42:57;7.93;;;5.53;;
67041;SDS011;53949;47.790;18.750;2022-12-07T04:46:00;9.40;;;5.20;;
67041;SDS011;53949;47.790;18.750;2022-12-07T04:49:04;6.72;;;5.37;;
67041;SDS011;53949;47.790;18.750;2022-12-07T04:52:07;9.13;;;5.75;;
67041;SDS011;53949;47.790;18.750;2022-12-07T04:55:11;8.77;;;5.68;;
67041;SDS011;53949;47.790;18.750;2022-12-07T04:58:14;8.98;;;5.78;;
67041;SDS011;53949;47.790;18.750;2022-12-07T05:01:18;12.00;;;6.55;;
67041;SDS011;53949;47.790;18.750;2022-12-07T05:04:23;9.57;;;5.93;;
67041;SDS011;53949;47.790;18.750;2022-12-07T05:07:28;9.45;;;6.10;;
67041;SDS011;53949;47.790;18.750;2022-12-07T05:10:32;10.85;;;6.85;;
67041;SDS011;53949;47.790;18.750;2022-12-07T05:13:35;10.40;;;5.70;;
67041;SDS011;53949;47.790;18.750;2022-12-07T05:16:40;8.55;;;6.57;;
67041;SDS011;53949;47.790;18.750;2022-12-07T05:19:44;9.88;;;6.60;;
67041;SDS011;53949;47.790;18.750;2022-12-07T05:22:47;10.30;;;6.03;;
67041;SDS011;53949;47.790;18.750;2022-12-07T05:25:50;12.02;;;6.72;;
67041;SDS011;53949;47.790;18.750;2022-12-07T05:28:54;8.55;;;5.90;;
67041;SDS011;53949;47.790;18.750;2022-12-07T05:31:58;10.45;;;6.37;;
67041;SDS011;53949;47.790;18.750;2022-12-07T05:35:02;14.80;;;7.72;;
67041;SDS011;53949;47.790;18.750;2022-12-07T05:38:05;13.75;;;7.62;;
67041;SDS011;53949;47.790;18.750;2022-12-07T05:41:09;10.18;;;6.43;;
67041;SDS011;53949;47.790;18.750;2022-12-07T05:44:36;12.85;;;7.00;;
67041;SDS011;53949;47.790;18.750;2022-12-07T05:47:40;10.40;;;5.80;;
67041;SDS011;53949;47.790;18.750;2022-12-07T05:50:43;9.35;;;6.32;;
67041;SDS011;53949;47.790;18.750;2022-12-07T05:53:46;8.45;;;6.00;;
67041;SDS011;53949;47.790;18.750;2022-12-07T05:56:49;14.82;;;7.32;;
67041;SDS011;53949;47.790;18.750;2022-12-07T05:59:52;10.85;;;6.60;;
67041;SDS011;53949;47.790;18.750;2022-12-07T06:02:56;10.35;;;6.47;;
67041;SDS011;53949;47.790;18.750;2022-12-07T06:06:01;13.05;;;8.55;;
67041;SDS011;53949;47.790;18.750;2022-12-07T06:09:04;14.70;;;9.05;;
67041;SDS011;53949;47.790;18.750;2022-12-07T06:12:09;15.63;;;8.50;;
67041;SDS011;53949;47.790;18.750;2022-12-07T06:15:32;12.50;;;7.47;;
67041;SDS011;53949;47.790;18.750;2022-12-07T06:18:36;15.23;;;8.75;;
67041;SDS011;53949;47.790;18.750;2022-12-07T06:21:39;17.62;;;10.82;;
67041;SDS011;53949;47.790;18.750;2022-12-07T06:24:43;16.67;;;9.95;;
67041;SDS011;53949;47.790;18.750;2022-12-07T06:27:46;15.45;;;10.02;;
67041;SDS011;53949;47.790;18.750;2022-12-07T06:30:56;12.85;;;8.23;;
67041;SDS011;53949;47.790;18.750;2022-12-07T06:34:15;11.57;;;7.95;;
67041;SDS011;53949;47.790;18.750;2022-12-07T06:37:20;12.77;;;7.90;;
67041;SDS011;53949;47.790;18.750;2022-12-07T06:40:23;14.63;;;9.00;;
67041;SDS011;53949;47.790;18.750;2022-12-07T06:43:26;17.33;;;9.50;;
67041;SDS011;53949;47.790;18.750;2022-12-07T06:46:29;17.52;;;9.02;;
67041;SDS011;53949;47.790;18.750;2022-12-07T06:49:34;15.57;;;9.43;;
67041;SDS011;53949;47.790;18.750;2022-12-07T06:52:38;16.55;;;10.05;;
67041;SDS011;53949;47.790;18.750;2022-12-07T06:55:41;14.20;;;9.50;;
67041;SDS011;53949;47.790;18.750;2022-12-07T06:58:44;16.37;;;10.10;;
67041;SDS011;53949;47.790;18.750;2022-12-07T07:01:48;18.27;;;10.80;;
67041;SDS011;53949;47.790;18.750;2022-12-07T07:04:51;14.45;;;8.45;;
67041;SDS011;53949;47.790;18.750;2022-12-07T07:07:54;16.30;;;9.27;;
67041;SDS011;53949;47.790;18.750;2022-12-07T07:11:17;16.73;;;9.45;;
67041;SDS011;53949;47.790;18.750;2022-12-07T07:14:22;18.02;;;9.93;;
67041;SDS011;53949;47.790;18.750;2022-12-07T07:17:25;16.58;;;9.73;;
67041;SDS011;53949;47.790;18.750;2022-12-07T07:20:29;18.35;;;10.15;;
67041;SDS011;53949;47.790;18.750;2022-12-07T07:23:32;19.35;;;10.02;;
67041;SDS011;53949;47.790;18.750;2022-12-07T07:26:36;20.05;;;10.02;;
67041;SDS011;53949;47.790;18.750;2022-12-07T07:29:39;15.85;;;9.75;;
67041;SDS011;53949;47.790;18.750;2022-12-07T07:32:42;17.73;;;10.25;;
67041;SDS011;53949;47.790;18.750;2022-12-07T07:35:45;15.10;;;9.80;;
67041;SDS011;53949;47.790;18.750;2022-12-07T07:38:48;18.50;;;10.20;;
67041;SDS011;53949;47.790;18.750;2022-12-07T07:41:51;23.45;;;11.10;;
67041;SDS011;53949;47.790;18.750;2022-12-07T07:44:58;18.42;;;9.85;;
67041;SDS011;53949;47.790;18.750;2022-12-07T07:48:01;20.45;;;11.23;;
67041;SDS011;53949;47.790;18.750;2022-12-07T07:51:06;20.02;;;11.20;;
67041;SDS011;53949;47.790;18.750;2022-12-07T07:54:10;19.08;;;9.65;;
67041;SDS011;53949;47.790;18.750;2022-12-07T07:57:15;19.40;;;10.60;;
67041;SDS011;53949;47.790;18.750;2022-12-07T08:00:19;17.35;;;9.80;;
67041;SDS011;53949;47.790;18.750;2022-12-07T08:03:23;18.48;;;10.20;;
67041;SDS011;53949;47.790;18.750;2022-12-07T08:06:27;18.17;;;10.20;;
67041;SDS011;53949;47.790;18.750;2022-12-07T08:09:34;20.02;;;11.05;;
67041;SDS011;53949;47.790;18.750;2022-12-07T08:12:39;19.42;;;10.95;;
67041;SDS011;53949;47.790;18.750;2022-12-07T08:16:06;17.12;;;10.20;;
67041;SDS011;53949;47.790;18.750;2022-12-07T08:19:11;17.90;;;11.00;;
67041;SDS011;53949;47.790;18.750;2022-12-07T08:22:15;16.77;;;9.27;;
67041;SDS011;53949;47.790;18.750;2022-12-07T08:25:18;12.70;;;7.80;;
67041;SDS011;53949;47.790;18.750;2022-12-07T08:28:22;16.98;;;9.93;;
67041;SDS011;53949;47.790;18.750;2022-12-07T08:31:25;20.42;;;10.80;;
67041;SDS011;53949;47.790;18.750;2022-12-07T08:34:30;21.45;;;10.77;;
67041;SDS011;53949;47.790;18.750;2022-12-07T08:37:33;19.02;;;10.38;;
67041;SDS011;53949;47.790;18.750;2022-12-07T08:40:37;17.65;;;10.38;;
67041;SDS011;53949;47.790;18.750;2022-12-07T08:43:40;16.80;;;10.38;;
67041;SDS011;53949;47.790;18.750;2022-12-07T08:46:45;19.42;;;10.38;;
67041;SDS011;53949;47.790;18.750;2022-12-07T08:49:50;19.30;;;9.52;;
67041;SDS011;53949;47.790;18.750;2022-12-07T08:52:56;18.50;;;10.18;;
67041;SDS011;53949;47.790;18.750;2022-12-07T08:56:00;16.40;;;8.60;;
67041;SDS011;53949;47.790;18.750;2022-12-07T08:59:05;14.73;;;9.18;;
67041;SDS011;53949;47.790;18.750;2022-12-07T09:02:08;17.08;;;9.60;;
67041;SDS011;53949;47.790;18.750;2022-12-07T09:05:12;17.23;;;9.20;;
67041;SDS011;53949;47.790;18.750;2022-12-07T09:08:20;14.57;;;8.75;;
67041;SDS011;53949;47.790;18.750;2022-12-07T09:11:25;15.05;;;9.35;;
67041;SDS011;53949;47.790;18.750;2022-12-07T09:14:31;16.08;;;8.90;;
67041;SDS011;53949;47.790;18.750;2022-12-07T09:17:34;13.85;;;8.43;;
67041;SDS011;53949;47.790;18.750;2022-12-07T09:23:43;11.82;;;7.70;;
67041;SDS011;53949;47.790;18.750;2022-12-07T09:26:46;12.00;;;7.80;;
67041;SDS011;53949;47.790;18.750;2022-12-07T09:29:49;14.23;;;7.43;;
67041;SDS011;53949;47.790;18.750;2022-12-07T09:32:54;12.82;;;7.15;;
67041;SDS011;53949;47.790;18.750;2022-12-07T09:35:58;8.33;;;6.13;;
67041;SDS011;53949;47.790;18.750;2022-12-07T09:39:01;11.07;;;5.68;;
67041;SDS011;53949;47.790;18.750;2022-12-07T09:42:07;11.57;;;7.18;;
67041;SDS011;53949;47.790;18.750;2022-12-07T09:45:18;9.68;;;5.85;;
67041;SDS011;53949;47.790;18.750;2022-12-07T09:48:31;8.13;;;5.60;;
67041;SDS011;53949;47.790;18.750;2022-12-07T09:54:41;12.82;;;7.45;;
67041;SDS011;53949;47.790;18.750;2022-12-07T09:57:47;21.25;;;8.82;;
67041;SDS011;53949;47.790;18.750;2022-12-07T10:04:12;14.38;;;8.30;;
67041;SDS011;53949;47.790;18.750;2022-12-07T10:07:17;12.25;;;7.53;;
67041;SDS011;53949;47.790;18.750;2022-12-07T10:10:23;13.82;;;8.35;;
67041;SDS011;53949;47.790;18.750;2022-12-07T10:13:36;10.85;;;7.47;;
67041;SDS011;53949;47.790;18.750;2022-12-07T10:16:40;12.13;;;7.28;;
67041;SDS011;53949;47.790;18.750;2022-12-07T10:19:45;10.48;;;6.90;;
67041;SDS011;53949;47.790;18.750;2022-12-07T10:29:36;11.85;;;7.18;;
67041;SDS011;53949;47.790;18.750;2022-12-07T10:32:40;15.10;;;8.05;;
67041;SDS011;53949;47.790;18.750;2022-12-07T10:35:45;13.65;;;8.32;;
67041;SDS011;53949;47.790;18.750;2022-12-07T10:38:49;12.70;;;7.07;;
67041;SDS011;53949;47.790;18.750;2022-12-07T10:42:02;11.55;;;7.93;;
67041;SDS011;53949;47.790;18.750;2022-12-07T10:45:13;12.10;;;7.47;;
67041;SDS011;53949;47.790;18.750;2022-12-07T10:48:22;12.50;;;8.38;;
67041;SDS011;53949;47.790;18.750;2022-12-07T10:51:46;13.48;;;8.43;;
67041;SDS011;53949;47.790;18.750;2022-12-07T10:55:07;13.00;;;7.95;;
67041;SDS011;53949;47.790;18.750;2022-12-07T10:58:35;9.75;;;6.80;;
67041;SDS011;53949;47.790;18.750;2022-12-07T11:15:18;10.32;;;7.25;;
67041;SDS011;53949;47.790;18.750;2022-12-07T11:18:27;11.55;;;6.93;;
67041;SDS011;53949;47.790;18.750;2022-12-07T11:21:39;10.48;;;6.97;;
67041;SDS011;53949;47.790;18.750;2022-12-07T11:24:52;11.12;;;7.32;;
67041;SDS011;53949;47.790;18.750;2022-12-07T11:31:17;11.45;;;7.07;;
67041;SDS011;53949;47.790;18.750;2022-12-07T11:37:55;11.18;;;7.72;;
67041;SDS011;53949;47.790;18.750;2022-12-07T11:41:02;12.15;;;6.60;;
67041;SDS011;53949;47.790;18.750;2022-12-07T11:48:03;9.50;;;6.28;;
67041;SDS011;53949;47.790;18.750;2022-12-07T11:51:14;16.37;;;6.60;;
67041;SDS011;53949;47.790;18.750;2022-12-07T11:54:20;13.02;;;7.22;;
67041;SDS011;53949;47.790;18.750;2022-12-07T11:57:45;11.95;;;6.20;;
67041;SDS011;53949;47.790;18.750;2022-12-07T12:01:07;9.18;;;5.55;;
67041;SDS011;53949;47.790;18.750;2022-12-07T12:04:30;9.50;;;5.50;;
67041;SDS011;53949;47.790;18.750;2022-12-07T12:07:42;12.77;;;6.12;;
67041;SDS011;53949;47.790;18.750;2022-12-07T12:14:40;10.32;;;6.43;;
67041;SDS011;53949;47.790;18.750;2022-12-07T12:21:28;10.30;;;6.30;;
67041;SDS011;53949;47.790;18.750;2022-12-07T12:24:32;11.23;;;5.67;;
67041;SDS011;53949;47.790;18.750;2022-12-07T12:27:39;9.85;;;6.10;;
67041;SDS011;53949;47.790;18.750;2022-12-07T12:30:43;10.13;;;6.18;;
67041;SDS011;53949;47.790;18.750;2022-12-07T12:33:47;9.27;;;6.55;;
67041;SDS011;53949;47.790;18.750;2022-12-07T12:36:52;11.77;;;6.45;;
67041;SDS011;53949;47.790;18.750;2022-12-07T12:59:29;9.75;;;5.93;;
67041;SDS011;53949;47.790;18.750;2022-12-07T13:03:19;12.70;;;6.40;;
67041;SDS011;53949;47.790;18.750;2022-12-07T13:06:19;9.05;;;5.57;;
67041;SDS011;53949;47.790;18.750;2022-12-07T13:09:27;11.43;;;6.40;;
67041;SDS011;53949;47.790;18.750;2022-12-07T13:12:31;11.30;;;5.37;;
67041;SDS011;53949;47.790;18.750;2022-12-07T13:18:40;8.80;;;6.07;;
67041;SDS011;53949;47.790;18.750;2022-12-07T13:21:44;11.38;;;5.40;;
67041;SDS011;53949;47.790;18.750;2022-12-07T13:24:47;12.30;;;6.82;;
67041;SDS011;53949;47.790;18.750;2022-12-07T13:27:55;10.52;;;6.75;;
67041;SDS011;53949;47.790;18.750;2022-12-07T13:34:43;8.98;;;5.22;;
67041;SDS011;53949;47.790;18.750;2022-12-07T13:37:46;9.75;;;5.68;;
67041;SDS011;53949;47.790;18.750;2022-12-07T13:41:00;8.68;;;5.85;;
67041;SDS011;53949;47.790;18.750;2022-12-07T13:44:11;21.33;;;9.85;;
67041;SDS011;53949;47.790;18.750;2022-12-07T13:47:19;11.30;;;7.07;;
67041;SDS011;53949;47.790;18.750;2022-12-07T13:50:29;11.18;;;6.75;;
67041;SDS011;53949;47.790;18.750;2022-12-07T13:53:34;10.07;;;5.50;;
67041;SDS011;53949;47.790;18.750;2022-12-07T13:56:50;9.55;;;6.07;;
67041;SDS011;53949;47.790;18.750;2022-12-07T13:59:54;8.13;;;5.32;;
67041;SDS011;53949;47.790;18.750;2022-12-07T14:03:02;8.43;;;5.90;;
67041;SDS011;53949;47.790;18.750;2022-12-07T14:06:17;11.12;;;6.00;;
67041;SDS011;53949;47.790;18.750;2022-12-07T14:09:28;9.98;;;6.53;;
67041;SDS011;53949;47.790;18.750;2022-12-07T14:12:32;10.32;;;6.00;;
67041;SDS011;53949;47.790;18.750;2022-12-07T14:15:36;11.43;;;6.80;;
67041;SDS011;53949;47.790;18.750;2022-12-07T14:18:41;9.55;;;6.57;;
67041;SDS011;53949;47.790;18.750;2022-12-07T14:21:45;13.90;;;8.13;;
67041;SDS011;53949;47.790;18.750;2022-12-07T14:24:49;15.18;;;10.07;;
67041;SDS011;53949;47.790;18.750;2022-12-07T14:27:53;11.55;;;7.72;;
67041;SDS011;53949;47.790;18.750;2022-12-07T14:31:02;11.85;;;7.05;;
67041;SDS011;53949;47.790;18.750;2022-12-07T14:34:11;12.05;;;7.25;;
67041;SDS011;53949;47.790;18.750;2022-12-07T14:37:16;11.40;;;6.78;;
67041;SDS011;53949;47.790;18.750;2022-12-07T14:40:22;12.65;;;7.55;;
67041;SDS011;53949;47.790;18.750;2022-12-07T14:43:27;14.80;;;7.45;;
67041;SDS011;53949;47.790;18.750;2022-12-07T14:46:32;13.55;;;7.35;;
67041;SDS011;53949;47.790;18.750;2022-12-07T14:49:37;10.48;;;6.65;;
67041;SDS011;53949;47.790;18.750;2022-12-07T14:52:42;15.93;;;7.78;;
67041;SDS011;53949;47.790;18.750;2022-12-07T14:56:07;22.37;;;11.30;;
67041;SDS011;53949;47.790;18.750;2022-12-07T14:59:11;16.15;;;8.45;;
67041;SDS011;53949;47.790;18.750;2022-12-07T15:02:15;17.00;;;8.68;;
67041;SDS011;53949;47.790;18.750;2022-12-07T15:05:18;19.17;;;9.20;;
67041;SDS011;53949;47.790;18.750;2022-12-07T15:08:22;22.90;;;9.90;;
67041;SDS011;53949;47.790;18.750;2022-12-07T15:11:26;18.17;;;10.35;;
67041;SDS011;53949;47.790;18.750;2022-12-07T15:14:29;22.55;;;10.07;;
67041;SDS011;53949;47.790;18.750;2022-12-07T15:17:32;12.93;;;7.90;;
67041;SDS011;53949;47.790;18.750;2022-12-07T15:20:35;14.45;;;8.45;;
67041;SDS011;53949;47.790;18.750;2022-12-07T15:23:40;15.83;;;7.87;;
67041;SDS011;53949;47.790;18.750;2022-12-07T15:26:45;12.90;;;8.02;;
67041;SDS011;53949;47.790;18.750;2022-12-07T15:29:49;13.25;;;8.02;;
67041;SDS011;53949;47.790;18.750;2022-12-07T15:32:53;15.68;;;8.10;;
67041;SDS011;53949;47.790;18.750;2022-12-07T15:35:58;18.45;;;8.57;;
67041;SDS011;53949;47.790;18.750;2022-12-07T15:39:02;13.40;;;8.50;;
67041;SDS011;53949;47.790;18.750;2022-12-07T15:42:21;15.25;;;8.68;;
67041;SDS011;53949;47.790;18.750;2022-12-07T15:45:24;17.98;;;9.20;;
67041;SDS011;53949;47.790;18.750;2022-12-07T15:48:28;17.10;;;8.75;;
67041;SDS011;53949;47.790;18.750;2022-12-07T15:51:31;21.58;;;10.52;;
67041;SDS011;53949;47.790;18.750;2022-12-07T15:54:36;16.10;;;9.43;;
67041;SDS011;53949;47.790;18.750;2022-12-07T15:57:40;14.37;;;8.70;;
67041;SDS011;53949;47.790;18.750;2022-12-07T16:00:44;14.18;;;8.48;;
67041;SDS011;53949;47.790;18.750;2022-12-07T16:03:47;19.30;;;8.73;;
67041;SDS011;53949;47.790;18.750;2022-12-07T16:06:50;19.30;;;10.18;;
67041;SDS011;53949;47.790;18.750;2022-12-07T16:09:54;14.45;;;8.68;;
67041;SDS011;53949;47.790;18.750;2022-12-07T16:12:57;19.15;;;10.70;;
67041;SDS011;53949;47.790;18.750;2022-12-07T16:16:05;22.92;;;11.98;;
67041;SDS011;53949;47.790;18.750;2022-12-07T16:19:09;21.67;;;13.32;;
67041;SDS011;53949;47.790;18.750;2022-12-07T16:22:14;23.38;;;13.75;;
67041;SDS011;53949;47.790;18.750;2022-12-07T16:25:17;30.23;;;15.02;;
67041;SDS011;53949;47.790;18.750;2022-12-07T16:28:21;29.45;;;13.82;;
67041;SDS011;53949;47.790;18.750;2022-12-07T16:31:25;23.50;;;12.07;;
67041;SDS011;53949;47.790;18.750;2022-12-07T16:34:29;19.33;;;9.60;;
67041;SDS011;53949;47.790;18.750;2022-12-07T16:37:32;12.75;;;6.87;;
67041;SDS011;53949;47.790;18.750;2022-12-07T16:40:35;13.05;;;7.43;;
67041;SDS011;53949;47.790;18.750;2022-12-07T16:43:38;11.90;;;6.82;;
67041;SDS011;53949;47.790;18.750;2022-12-07T16:46:42;11.90;;;6.85;;
67041;SDS011;53949;47.790;18.750;2022-12-07T16:49:46;12.30;;;6.87;;
67041;SDS011;53949;47.790;18.750;2022-12-07T16:52:51;12.15;;;6.97;;
67041;SDS011;53949;47.790;18.750;2022-12-07T16:55:54;11.55;;;6.82;;
67041;SDS011;53949;47.790;18.750;2022-12-07T16:58:58;13.52;;;7.72;;
67041;SDS011;53949;47.790;18.750;2022-12-07T17:02:01;13.82;;;8.50;;
67041;SDS011;53949;47.790;18.750;2022-12-07T17:05:05;27.77;;;13.05;;
67041;SDS011;53949;47.790;18.750;2022-12-07T17:08:09;17.85;;;10.63;;
67041;SDS011;53949;47.790;18.750;2022-12-07T17:11:21;16.10;;;9.27;;
67041;SDS011;53949;47.790;18.750;2022-12-07T17:14:25;16.95;;;9.18;;
67041;SDS011;53949;47.790;18.750;2022-12-07T17:17:57;18.50;;;8.55;;
67041;SDS011;53949;47.790;18.750;2022-12-07T17:21:02;14.70;;;8.60;;
67041;SDS011;53949;47.790;18.750;2022-12-07T17:24:08;21.65;;;9.88;;
67041;SDS011;53949;47.790;18.750;2022-12-07T17:27:12;16.05;;;9.88;;
67041;SDS011;53949;47.790;18.750;2022-12-07T17:30:19;20.45;;;10.65;;
67041;SDS011;53949;47.790;18.750;2022-12-07T17:33:22;21.58;;;10.70;;
67041;SDS011;53949;47.790;18.750;2022-12-07T17:36:27;17.77;;;9.75;;
67041;SDS011;53949;47.790;18.750;2022-12-07T17:39:31;21.52;;;10.98;;
67041;SDS011;53949;47.790;18.750;2022-12-07T17:42:35;21.60;;;10.98;;
67041;SDS011;53949;47.790;18.750;2022-12-07T17:45:39;18.33;;;10.77;;
67041;SDS011;53949;47.790;18.750;2022-12-07T17:48:44;17.93;;;9.70;;
67041;SDS011;53949;47.790;18.750;2022-12-07T17:51:48;18.15;;;9.13;;
67041;SDS011;53949;47.790;18.750;2022-12-07T17:55:10;17.27;;;8.80;;
67041;SDS011;53949;47.790;18.750;2022-12-07T17:58:13;16.80;;;8.80;;
67041;SDS011;53949;47.790;18.750;2022-12-07T18:01:17;39.03;;;17.80;;
67041;SDS011;53949;47.790;18.750;2022-12-07T18:04:25;36.05;;;16.27;;
67041;SDS011;53949;47.790;18.750;2022-12-07T18:07:28;40.28;;;18.60;;
67041;SDS011;53949;47.790;18.750;2022-12-07T18:10:33;28.93;;;13.60;;
67041;SDS011;53949;47.790;18.750;2022-12-07T18:13:39;16.48;;;9.07;;
67041;SDS011;53949;47.790;18.750;2022-12-07T18:16:44;16.37;;;8.60;;
67041;SDS011;53949;47.790;18.750;2022-12-07T18:19:49;17.00;;;8.97;;
67041;SDS011;53949;47.790;18.750;2022-12-07T18:22:53;15.57;;;8.35;;
67041;SDS011;53949;47.790;18.750;2022-12-07T18:25:57;15.35;;;8.55;;
67041;SDS011;53949;47.790;18.750;2022-12-07T18:29:00;18.65;;;8.65;;
67041;SDS011;53949;47.790;18.750;2022-12-07T18:32:04;18.17;;;9.55;;
67041;SDS011;53949;47.790;18.750;2022-12-07T18:35:08;23.53;;;9.90;;
67041;SDS011;53949;47.790;18.750;2022-12-07T18:38:13;23.52;;;9.80;;
67041;SDS011;53949;47.790;18.750;2022-12-07T18:44:23;21.52;;;11.20;;
67041;SDS011;53949;47.790;18.750;2022-12-07T18:47:27;17.75;;;10.50;;
67041;SDS011;53949;47.790;18.750;2022-12-07T18:50:31;17.58;;;9.20;;
67041;SDS011;53949;47.790;18.750;2022-12-07T18:53:35;14.93;;;8.02;;
67041;SDS011;53949;47.790;18.750;2022-12-07T18:56:40;24.17;;;10.90;;
67041;SDS011;53949;47.790;18.750;2022-12-07T18:59:44;17.15;;;9.85;;
67041;SDS011;53949;47.790;18.750;2022-12-07T19:02:49;16.17;;;9.15;;
67041;SDS011;53949;47.790;18.750;2022-12-07T19:05:57;18.58;;;8.05;;
67041;SDS011;53949;47.790;18.750;2022-12-07T19:09:01;15.40;;;8.57;;
67041;SDS011;53949;47.790;18.750;2022-12-07T19:12:11;17.90;;;9.48;;
67041;SDS011;53949;47.790;18.750;2022-12-07T19:15:16;19.55;;;10.52;;
67041;SDS011;53949;47.790;18.750;2022-12-07T19:18:20;30.42;;;12.60;;
67041;SDS011;53949;47.790;18.750;2022-12-07T19:21:23;36.95;;;13.55;;
67041;SDS011;53949;47.790;18.750;2022-12-07T19:24:29;41.33;;;16.23;;
67041;SDS011;53949;47.790;18.750;2022-12-07T19:27:34;20.33;;;9.80;;
67041;SDS011;53949;47.790;18.750;2022-12-07T19:30:40;20.08;;;9.77;;
67041;SDS011;53949;47.790;18.750;2022-12-07T19:33:46;16.73;;;9.32;;
67041;SDS011;53949;47.790;18.750;2022-12-07T19:39:56;15.43;;;7.80;;
67041;SDS011;53949;47.790;18.750;2022-12-07T19:43:04;14.13;;;8.20;;
67041;SDS011;53949;47.790;18.750;2022-12-07T19:49:28;15.90;;;8.50;;
67041;SDS011;53949;47.790;18.750;2022-12-07T19:52:34;15.25;;;8.20;;